createdAt,value
2023-04-09T00:01:11.898Z,100804.94
2023-04-09T00:03:40.642Z,100787.56
2023-04-09T00:06:07.920Z,100792.81
2023-04-09T00:08:35.547Z,100794.50
2023-04-09T00:11:03.031Z,100796.34
2023-04-09T00:16:00.189Z,100799.22
2023-04-09T00:18:27.888Z,100792.44
2023-04-09T00:20:55.117Z,100794.91
2023-04-09T00:23:22.268Z,100790.47
2023-04-09T00:25:49.816Z,100790.34
2023-04-09T00:28:17.319Z,100789.25
2023-04-09T00:30:44.599Z,100795.41
2023-04-09T00:33:11.984Z,100791.00
2023-04-09T00:35:39.122Z,100792.59
2023-04-09T00:38:06.709Z,100790.19
2023-04-09T00:40:34.255Z,100789.41
2023-04-09T00:43:02.526Z,100795.28
2023-04-09T00:45:29.759Z,100784.88
2023-04-09T00:47:57.363Z,100783.00
2023-04-09T00:50:24.563Z,100785.81
2023-04-09T00:52:52.053Z,100782.34
2023-04-09T00:55:20.850Z,100776.00
2023-04-09T00:57:47.978Z,100780.53
2023-04-09T01:00:15.498Z,100785.97
2023-04-09T01:02:43.752Z,100771.78
2023-04-09T01:05:11.628Z,100783.00
2023-04-09T01:07:57.575Z,100789.25
2023-04-09T01:10:48.447Z,100783.28
2023-04-09T01:13:31.720Z,100788.41
2023-04-09T01:16:00.917Z,100785.87
2023-04-09T01:18:38.247Z,100780.38
2023-04-09T01:21:09.287Z,100782.87
2023-04-09T01:23:47.393Z,100785.75
2023-04-09T01:26:39.781Z,100790.13
2023-04-09T01:29:07.513Z,100782.22
2023-04-09T01:31:38.896Z,100782.22
2023-04-09T01:34:07.489Z,100786.34
2023-04-09T01:36:36.217Z,100789.84
2023-04-09T01:39:04.118Z,100800.00
2023-04-09T01:41:32.730Z,100793.94
2023-04-09T01:44:02.017Z,100787.66
2023-04-09T01:46:29.980Z,100790.28
2023-04-09T01:48:57.715Z,100798.41
2023-04-09T01:51:26.621Z,100795.84
2023-04-09T01:53:53.996Z,100788.88
2023-04-09T01:56:21.453Z,100794.66
2023-04-09T01:58:49.302Z,100788.59
2023-04-09T02:01:51.841Z,100793.66
2023-04-09T02:04:19.694Z,100787.53
2023-04-09T02:06:53.010Z,100787.75
2023-04-09T02:09:21.671Z,100797.06
2023-04-09T02:11:50.436Z,100790.56
2023-04-09T02:14:18.963Z,100789.78
2023-04-09T02:16:48.313Z,100792.97
2023-04-09T02:19:15.825Z,100791.97
2023-04-09T02:21:44.348Z,100789.28
2023-04-09T02:24:11.921Z,100784.84
2023-04-09T02:26:39.146Z,100790.16
2023-04-09T02:29:06.527Z,100787.59
2023-04-09T02:31:34.199Z,100786.81
2023-04-09T02:34:01.420Z,100782.91
2023-04-09T02:36:28.586Z,100785.78
2023-04-09T02:38:56.121Z,100777.84
2023-04-09T02:41:24.895Z,100779.53
2023-04-09T02:43:52.246Z,100780.38
2023-04-09T02:46:19.789Z,100769.16
2023-04-09T02:48:48.165Z,100776.16
2023-04-09T02:51:15.594Z,100774.31
2023-04-09T02:53:43.119Z,100768.38
2023-04-09T02:56:10.493Z,100772.47
2023-04-09T02:58:37.730Z,100769.81
2023-04-09T03:01:05.598Z,100773.75
2023-04-09T03:03:32.976Z,100767.03
2023-04-09T03:06:00.431Z,100769.75
2023-04-09T03:08:27.982Z,100781.69
2023-04-09T03:10:55.128Z,100772.56
2023-04-09T03:13:22.410Z,100775.22
2023-04-09T03:15:53.274Z,100778.34
2023-04-09T03:18:20.516Z,100772.06
2023-04-09T03:20:48.673Z,100781.06
2023-04-09T03:23:16.330Z,100779.66
2023-04-09T03:25:43.906Z,100775.38
2023-04-09T03:28:11.604Z,100772.91
2023-04-09T03:30:39.823Z,100774.09
2023-04-09T03:33:07.116Z,100777.72
2023-04-09T03:35:35.601Z,100771.44
2023-04-09T03:38:03.290Z,100777.03
2023-04-09T03:40:31.122Z,100776.13
2023-04-09T03:42:58.327Z,100778.06
2023-04-09T03:45:25.915Z,100777.66
2023-04-09T03:47:55.677Z,100771.91
2023-04-09T03:50:24.683Z,100779.22
2023-04-09T03:52:52.594Z,100766.50
2023-04-09T03:55:20.028Z,100776.06
2023-04-09T03:57:48.440Z,100789.41
2023-04-09T04:00:16.521Z,100783.34
2023-04-09T04:02:51.321Z,100786.00
2023-04-09T04:05:23.739Z,100785.66
2023-04-09T04:07:51.667Z,100779.47
2023-04-09T04:10:20.496Z,100790.72
2023-04-09T04:12:48.075Z,100793.56
2023-04-09T04:15:15.951Z,100788.34
2023-04-09T04:17:44.912Z,100786.44
2023-04-09T04:20:15.453Z,100784.62
2023-04-09T04:22:43.956Z,100794.81
2023-04-09T04:25:11.978Z,100795.38
2023-04-09T04:27:43.185Z,100798.41
2023-04-09T04:30:11.000Z,100803.63
2023-04-09T04:32:39.928Z,100802.38
2023-04-09T04:35:07.751Z,100799.34
2023-04-09T04:37:35.634Z,100803.31
2023-04-09T04:40:04.426Z,100803.81
2023-04-09T04:42:32.863Z,100806.09
2023-04-09T04:45:00.626Z,100808.28
2023-04-09T04:47:29.174Z,100807.88
2023-04-09T04:49:58.638Z,100803.37
2023-04-09T04:52:26.443Z,100801.44
2023-04-09T04:54:54.227Z,100815.44
2023-04-09T04:57:21.776Z,100815.19
2023-04-09T04:59:49.072Z,100816.91
2023-04-09T05:02:17.480Z,100814.47
2023-04-09T05:04:46.090Z,100815.06
2023-04-09T05:07:13.954Z,100821.59
2023-04-09T05:09:43.003Z,100827.97
2023-04-09T05:12:11.300Z,100817.25
2023-04-09T05:14:38.692Z,100826.56
2023-04-09T05:17:06.353Z,100826.91
2023-04-09T05:19:35.353Z,100824.53
2023-04-09T05:22:02.854Z,100818.94
2023-04-09T05:24:30.316Z,100817.25
2023-04-09T05:26:57.614Z,100817.69
2023-04-09T05:29:25.416Z,100827.72
2023-04-09T05:31:53.193Z,100824.91
2023-04-09T05:34:21.024Z,100832.84
2023-04-09T05:36:49.095Z,100831.81
2023-04-09T05:39:16.786Z,100829.53
2023-04-09T05:41:45.072Z,100835.56
2023-04-09T05:44:15.832Z,100841.28
2023-04-09T05:46:43.862Z,100839.59
2023-04-09T05:49:11.625Z,100842.06
2023-04-09T05:51:39.222Z,100834.69
2023-04-09T05:54:06.895Z,100836.87
2023-04-09T05:56:34.425Z,100839.22
2023-04-09T05:59:01.877Z,100845.19
2023-04-09T06:01:29.838Z,100840.87
2023-04-09T06:03:58.456Z,100850.25
2023-04-09T06:06:28.953Z,100845.88
2023-04-09T06:08:56.431Z,100850.97
2023-04-09T06:11:23.701Z,100847.56
2023-04-09T06:13:51.800Z,100857.50
2023-04-09T06:16:19.591Z,100857.75
2023-04-09T06:18:48.965Z,100861.66
2023-04-09T06:21:16.369Z,100862.12
2023-04-09T06:23:43.915Z,100858.34
2023-04-09T06:26:11.289Z,100850.87
2023-04-09T06:28:38.663Z,100851.22
2023-04-09T06:31:06.623Z,100855.31
2023-04-09T06:33:33.953Z,100854.25
2023-04-09T06:36:01.466Z,100860.44
2023-04-09T06:38:29.077Z,100860.50
2023-04-09T06:40:57.233Z,100850.72
2023-04-09T06:43:24.396Z,100864.66
2023-04-09T06:45:52.572Z,100861.75
2023-04-09T06:48:19.786Z,100856.78
2023-04-09T06:50:47.221Z,100864.25
2023-04-09T06:53:15.558Z,100860.28
2023-04-09T06:55:43.270Z,100857.25
2023-04-09T06:58:10.611Z,100858.28
2023-04-09T07:00:38.254Z,100867.66
2023-04-09T07:03:08.131Z,100872.25
2023-04-09T07:05:36.011Z,100874.72
2023-04-09T07:08:04.300Z,100883.75
2023-04-09T07:10:31.499Z,100884.44
2023-04-09T07:12:58.806Z,100889.00
2023-04-09T07:15:26.318Z,100884.97
2023-04-09T07:17:53.679Z,100882.06
2023-04-09T07:20:22.148Z,100898.22
2023-04-09T07:22:49.751Z,100894.19
2023-04-09T07:25:17.114Z,100897.34
2023-04-09T07:27:44.642Z,100892.28
2023-04-09T07:30:12.329Z,100885.22
2023-04-09T07:32:40.012Z,100905.50
2023-04-09T07:35:09.796Z,100893.38
2023-04-09T07:37:37.385Z,100901.06
2023-04-09T07:40:05.005Z,100901.22
2023-04-09T07:42:32.271Z,100906.69
2023-04-09T07:45:00.779Z,100900.41
2023-04-09T07:47:28.673Z,100912.72
2023-04-09T07:49:56.336Z,100909.25
2023-04-09T07:52:24.160Z,100912.06
2023-04-09T07:54:51.463Z,100910.28
2023-04-09T07:57:18.835Z,100913.16
2023-04-09T07:59:46.870Z,100903.50
2023-04-09T08:02:15.355Z,100910.91
2023-04-09T08:04:43.379Z,100905.09
2023-04-09T08:07:11.574Z,100909.78
2023-04-09T08:09:38.814Z,100910.44
2023-04-09T08:12:06.404Z,100903.00
2023-04-09T08:14:33.765Z,100922.69
2023-04-09T08:17:01.644Z,100909.94
2023-04-09T08:19:29.290Z,100908.31
2023-04-09T08:21:56.770Z,100912.00
2023-04-09T08:24:24.034Z,100911.59
2023-04-09T08:26:51.815Z,100917.50
2023-04-09T08:29:19.137Z,100910.06
2023-04-09T08:31:46.626Z,100917.88
2023-04-09T08:34:16.224Z,100916.09
2023-04-09T08:36:47.737Z,100922.47
2023-04-09T08:39:18.961Z,100928.50
2023-04-09T08:41:48.362Z,100931.03
2023-04-09T08:44:16.780Z,100930.75
2023-04-09T08:46:44.814Z,100933.97
2023-04-09T08:49:13.040Z,100939.50
2023-04-09T08:51:46.351Z,100937.84
2023-04-09T08:54:16.246Z,100948.47
2023-04-09T08:56:43.959Z,100938.00
2023-04-09T08:59:11.240Z,100949.53
2023-04-09T09:01:38.768Z,100946.84
2023-04-09T09:04:09.869Z,100950.00
2023-04-09T09:06:38.930Z,100943.62
2023-04-09T09:09:11.825Z,100943.59
2023-04-09T09:11:39.673Z,100951.34
2023-04-09T09:14:15.034Z,100948.66
2023-04-09T09:16:44.383Z,100960.09
2023-04-09T09:19:24.259Z,100958.56
2023-04-09T09:21:59.539Z,100949.53
2023-04-09T09:24:27.546Z,100952.41
2023-04-09T09:26:55.251Z,100956.97
2023-04-09T09:29:22.501Z,100957.59
2023-04-09T09:31:51.817Z,100948.13
2023-04-09T09:34:21.033Z,100950.00
2023-04-09T09:36:48.420Z,100948.13
2023-04-09T09:39:17.710Z,100943.03
2023-04-09T09:41:48.782Z,100947.34
2023-04-09T09:44:34.677Z,100943.81
2023-04-09T09:47:04.133Z,100937.16
2023-04-09T09:49:31.606Z,100935.34
2023-04-09T09:52:02.905Z,100940.84
2023-04-09T09:54:39.034Z,100938.66
2023-04-09T09:57:08.275Z,100939.22
2023-04-09T09:59:39.004Z,100935.72
2023-04-09T10:02:23.668Z,100944.03
2023-04-09T10:04:53.072Z,100932.72
2023-04-09T10:07:21.979Z,100933.50
2023-04-09T10:09:50.908Z,100937.59
2023-04-09T10:12:19.512Z,100936.66
2023-04-09T10:14:47.250Z,100939.03
2023-04-09T10:17:14.727Z,100939.59
2023-04-09T10:19:45.061Z,100939.56
2023-04-09T10:22:18.553Z,100933.06
2023-04-09T10:24:46.193Z,100936.06
2023-04-09T10:27:16.772Z,100934.31
2023-04-09T10:29:46.204Z,100931.00
2023-04-09T10:32:21.223Z,100933.72
2023-04-09T10:34:49.268Z,100925.47
2023-04-09T10:37:21.827Z,100935.88
2023-04-09T10:39:50.057Z,100930.75
2023-04-09T10:42:40.168Z,100930.28
2023-04-09T10:45:12.033Z,100930.00
2023-04-09T10:47:41.564Z,100944.66
2023-04-09T10:50:24.065Z,100934.34
2023-04-09T10:52:54.051Z,100930.75
2023-04-09T10:55:37.227Z,100941.31
2023-04-09T10:58:05.957Z,100927.16
2023-04-09T11:00:41.394Z,100931.44
2023-04-09T11:03:09.408Z,100924.94
2023-04-09T11:05:40.550Z,100927.94
2023-04-09T11:08:12.544Z,100932.81
2023-04-09T11:10:42.138Z,100930.47
2023-04-09T11:13:16.376Z,100922.38
2023-04-09T11:15:45.334Z,100932.78
2023-04-09T11:18:23.544Z,100924.91
2023-04-09T11:20:57.871Z,100928.19
2023-04-09T11:23:25.680Z,100928.19
2023-04-09T11:25:54.226Z,100931.91
2023-04-09T11:28:21.454Z,100931.41
2023-04-09T11:30:51.250Z,100932.97
2023-04-09T11:33:20.191Z,100922.69
2023-04-09T11:35:48.505Z,100925.34
2023-04-09T11:38:15.890Z,100929.88
2023-04-09T11:40:51.507Z,100917.47
2023-04-09T11:43:20.956Z,100924.28
2023-04-09T11:45:49.392Z,100916.66
2023-04-09T11:48:18.658Z,100916.41
2023-04-09T11:50:46.794Z,100916.69
2023-04-09T11:53:21.041Z,100917.12
2023-04-09T11:55:51.589Z,100911.37
2023-04-09T11:58:19.172Z,100912.22
2023-04-09T12:00:46.464Z,100910.47
2023-04-09T12:03:16.568Z,100917.47
2023-04-09T12:05:50.656Z,100918.19
2023-04-09T12:08:23.768Z,100920.72
2023-04-09T12:10:53.724Z,100920.75
2023-04-09T12:13:21.692Z,100921.13
2023-04-09T12:15:50.123Z,100910.38
2023-04-09T12:18:17.442Z,100921.84
2023-04-09T12:20:47.595Z,100912.91
2023-04-09T12:23:15.703Z,100914.00
2023-04-09T12:25:44.204Z,100915.78
2023-04-09T12:28:18.388Z,100915.91
2023-04-09T12:30:46.367Z,100915.44
2023-04-09T12:33:13.895Z,100917.12
2023-04-09T12:35:41.233Z,100911.87
2023-04-09T12:38:08.428Z,100914.09
2023-04-09T12:40:37.053Z,100904.38
2023-04-09T12:43:04.539Z,100906.00
2023-04-09T12:45:32.026Z,100911.94
2023-04-09T12:47:59.434Z,100904.47
2023-04-09T12:50:26.684Z,100910.16
2023-04-09T12:52:53.815Z,100911.78
2023-04-09T12:55:22.059Z,100905.03
2023-04-09T12:57:51.979Z,100898.72
2023-04-09T13:00:19.273Z,100905.88
2023-04-09T13:02:47.192Z,100908.91
2023-04-09T13:05:14.488Z,100909.03
2023-04-09T13:07:43.089Z,100903.53
2023-04-09T13:10:11.199Z,100901.34
2023-04-09T13:12:38.384Z,100904.63
2023-04-09T13:15:06.694Z,100894.25
2023-04-09T13:17:34.305Z,100892.69
2023-04-09T13:20:02.074Z,100893.50
2023-04-09T13:22:29.355Z,100892.94
2023-04-09T13:24:57.491Z,100883.12
2023-04-09T13:27:24.687Z,100887.94
2023-04-09T13:29:51.910Z,100882.06
2023-04-09T13:32:21.218Z,100881.53
2023-04-09T13:34:48.578Z,100875.19
2023-04-09T13:37:16.195Z,100875.97
2023-04-09T13:39:44.848Z,100877.22
2023-04-09T13:42:13.964Z,100882.06
2023-04-09T13:44:44.689Z,100878.88
2023-04-09T13:47:13.445Z,100880.75
2023-04-09T13:49:41.483Z,100870.84
2023-04-09T13:52:09.174Z,100875.81
2023-04-09T13:54:37.148Z,100874.78
2023-04-09T13:57:04.276Z,100869.75
2023-04-09T13:59:31.550Z,100868.16
2023-04-09T14:01:59.123Z,100869.62
2023-04-09T14:04:26.767Z,100865.78
2023-04-09T14:06:53.930Z,100865.28
2023-04-09T14:09:21.154Z,100861.44
2023-04-09T14:11:49.504Z,100865.31
2023-04-09T14:14:16.825Z,100860.81
2023-04-09T14:16:43.959Z,100859.34
2023-04-09T14:19:11.453Z,100861.22
2023-04-09T14:21:40.792Z,100862.09
2023-04-09T14:24:07.989Z,100861.53
2023-04-09T14:26:35.525Z,100854.91
2023-04-09T14:29:02.867Z,100856.44
2023-04-09T14:31:30.208Z,100850.63
2023-04-09T14:33:57.899Z,100848.88
2023-04-09T14:36:25.121Z,100848.22
2023-04-09T14:38:53.457Z,100851.66
2023-04-09T14:41:22.682Z,100847.44
2023-04-09T14:43:50.072Z,100845.38
2023-04-09T14:46:17.253Z,100844.69
2023-04-09T14:48:44.761Z,100849.22
2023-04-09T14:51:12.186Z,100844.19
2023-04-09T14:53:39.420Z,100839.88
2023-04-09T14:56:07.030Z,100840.97
2023-04-09T14:58:34.346Z,100829.87
2023-04-09T15:01:01.480Z,100838.06
2023-04-09T15:03:28.987Z,100839.59
2023-04-09T15:05:56.862Z,100833.97
2023-04-09T15:08:24.114Z,100831.94
2023-04-09T15:10:51.579Z,100833.94
2023-04-09T15:13:18.742Z,100826.22
2023-04-09T15:15:45.865Z,100825.88
2023-04-09T15:18:13.404Z,100827.03
2023-04-09T15:20:41.731Z,100827.19
2023-04-09T15:23:09.795Z,100831.00
2023-04-09T15:25:37.245Z,100826.59
2023-04-09T15:28:04.665Z,100819.13
2023-04-09T15:30:31.941Z,100828.97
2023-04-09T15:32:59.313Z,100819.00
2023-04-09T15:35:29.543Z,100818.16
2023-04-09T15:37:57.365Z,100814.34
2023-04-09T15:40:24.893Z,100818.66
2023-04-09T15:42:52.075Z,100821.50
2023-04-09T15:45:19.583Z,100815.53
2023-04-09T15:47:47.351Z,100826.34
2023-04-09T15:50:14.846Z,100835.22
2023-04-09T15:52:42.170Z,100828.09
2023-04-09T15:55:09.965Z,100824.13
2023-04-09T15:57:38.615Z,100824.63
2023-04-09T16:00:10.242Z,100827.03
2023-04-09T16:02:38.883Z,100812.84
2023-04-09T16:05:07.469Z,100820.53
2023-04-09T16:07:34.926Z,100818.44
2023-04-09T16:10:02.402Z,100826.50
2023-04-09T16:12:29.841Z,100822.38
2023-04-09T16:14:57.160Z,100824.44
2023-04-09T16:17:24.868Z,100818.59
2023-04-09T16:19:52.312Z,100823.19
2023-04-09T16:22:19.516Z,100822.84
2023-04-09T16:24:46.655Z,100824.88
2023-04-09T16:27:14.556Z,100821.16
2023-04-09T16:29:41.809Z,100814.28
2023-04-09T16:32:09.522Z,100825.19
2023-04-09T16:34:37.091Z,100821.88
2023-04-09T16:37:04.292Z,100825.44
2023-04-09T16:39:31.694Z,100819.59
2023-04-09T16:41:59.275Z,100819.53
2023-04-09T16:44:26.538Z,100821.62
2023-04-09T16:46:53.702Z,100825.59
2023-04-09T16:49:21.068Z,100832.19
2023-04-09T16:51:48.427Z,100820.56
2023-04-09T16:54:15.854Z,100827.97
2023-04-09T16:56:43.308Z,100819.56
2023-04-09T16:59:12.178Z,100823.84
2023-04-09T17:01:39.449Z,100819.59
2023-04-09T17:04:06.984Z,100818.03
2023-04-09T17:06:34.202Z,100825.72
2023-04-09T17:09:01.486Z,100822.91
2023-04-09T17:11:28.967Z,100829.31
2023-04-09T17:13:56.271Z,100817.94
2023-04-09T17:16:23.533Z,100818.25
2023-04-09T17:18:53.731Z,100822.12
2023-04-09T17:21:21.300Z,100825.00
2023-04-09T17:23:48.376Z,100831.00
2023-04-09T17:26:16.939Z,100822.56
2023-04-09T17:28:44.500Z,100823.69
2023-04-09T17:31:13.420Z,100834.16
2023-04-09T17:33:41.212Z,100834.47
2023-04-09T17:36:11.418Z,100833.09
2023-04-09T17:38:38.609Z,100834.75
2023-04-09T17:41:07.826Z,100842.34
2023-04-09T17:43:35.031Z,100834.72
2023-04-09T17:46:07.649Z,100827.94
2023-04-09T17:48:38.427Z,100846.78
2023-04-09T17:51:06.251Z,100849.59
2023-04-09T17:53:33.326Z,100840.06
2023-04-09T17:56:04.239Z,100846.22
2023-04-09T17:58:31.469Z,100850.78
2023-04-09T18:01:02.687Z,100848.88
2023-04-09T18:03:30.382Z,100849.16
2023-04-09T18:05:57.867Z,100852.69
2023-04-09T18:08:25.230Z,100858.03
2023-04-09T18:11:09.190Z,100863.50
2023-04-09T18:13:39.708Z,100860.09
2023-04-09T18:16:11.390Z,100856.44
2023-04-09T18:18:40.720Z,100863.69
2023-04-09T18:21:15.210Z,100865.06
2023-04-09T18:23:45.428Z,100870.47
2023-04-09T18:26:12.902Z,100871.25
2023-04-09T18:28:40.320Z,100869.91
2023-04-09T18:31:07.500Z,100869.78
2023-04-09T18:33:34.998Z,100871.16
2023-04-09T18:36:02.492Z,100873.97
2023-04-09T18:38:30.513Z,100875.09
2023-04-09T18:40:58.075Z,100881.37
2023-04-09T18:43:26.092Z,100873.66
2023-04-09T18:45:53.816Z,100874.50
2023-04-09T18:48:24.517Z,100884.59
2023-04-09T18:50:52.196Z,100880.84
2023-04-09T18:53:19.847Z,100880.00
2023-04-09T18:55:47.552Z,100882.06
2023-04-09T18:58:16.019Z,100881.53
2023-04-09T19:00:43.682Z,100880.53
2023-04-09T19:03:12.196Z,100890.19
2023-04-09T19:05:40.257Z,100886.97
2023-04-09T19:08:08.331Z,100887.47
2023-04-09T19:10:36.318Z,100887.47
2023-04-09T19:13:03.862Z,100896.38
2023-04-09T19:15:31.219Z,100890.53
2023-04-09T19:17:58.927Z,100898.84
2023-04-09T19:20:27.324Z,100890.03
2023-04-09T19:22:55.606Z,100898.50
2023-04-09T19:25:23.358Z,100885.81
2023-04-09T19:27:50.691Z,100895.56
2023-04-09T19:30:17.860Z,100894.63
2023-04-09T19:32:45.661Z,100893.06
2023-04-09T19:35:12.824Z,100892.56
2023-04-09T19:37:40.519Z,100888.34
2023-04-09T19:40:08.780Z,100891.22
2023-04-09T19:42:36.259Z,100899.16
2023-04-09T19:45:03.553Z,100891.22
2023-04-09T19:47:31.141Z,100896.12
2023-04-09T19:49:58.328Z,100890.87
2023-04-09T19:52:26.033Z,100890.25
2023-04-09T19:54:57.131Z,100891.19
2023-04-09T19:57:24.354Z,100887.66
2023-04-09T19:59:52.452Z,100896.81
2023-04-09T20:02:20.068Z,100894.16
2023-04-09T20:04:47.662Z,100894.91
2023-04-09T20:07:15.808Z,100896.69
2023-04-09T20:09:43.695Z,100897.19
2023-04-09T20:12:11.199Z,100894.16
2023-04-09T20:14:39.360Z,100893.97
2023-04-09T20:17:08.899Z,100893.97
2023-04-09T20:19:37.940Z,100896.69
2023-04-09T20:22:05.445Z,100906.62
2023-04-09T20:24:34.013Z,100906.12
2023-04-09T20:27:01.783Z,100902.38
2023-04-09T20:29:29.117Z,100903.72
2023-04-09T20:31:56.710Z,100902.47
2023-04-09T20:34:26.944Z,100894.72
2023-04-09T20:36:54.970Z,100897.34
2023-04-09T20:39:22.565Z,100898.34
2023-04-09T20:41:49.998Z,100899.34
2023-04-09T20:44:17.255Z,100900.03
2023-04-09T20:46:44.601Z,100899.94
2023-04-09T20:49:12.336Z,100896.03
2023-04-09T20:51:40.042Z,100895.34
2023-04-09T20:54:07.155Z,100898.03
2023-04-09T20:56:34.662Z,100892.94
2023-04-09T20:59:01.876Z,100901.72
2023-04-09T21:01:29.547Z,100898.44
2023-04-09T21:03:57.632Z,100895.09
2023-04-09T21:06:24.856Z,100895.28
2023-04-09T21:08:52.543Z,100885.78
2023-04-09T21:11:20.452Z,100895.28
2023-04-09T21:13:54.669Z,100895.09
2023-04-09T21:16:23.529Z,100892.66
2023-04-09T21:18:51.046Z,100899.81
2023-04-09T21:21:19.252Z,100899.09
2023-04-09T21:23:46.743Z,100893.00
2023-04-09T21:26:15.161Z,100897.41
2023-04-09T21:28:42.363Z,100889.53
2023-04-09T21:31:11.332Z,100888.06
2023-04-09T21:33:41.545Z,100885.63
2023-04-09T21:36:08.881Z,100885.84
2023-04-09T21:38:36.354Z,100880.91
2023-04-09T21:41:03.567Z,100888.13
2023-04-09T21:43:30.768Z,100883.69
2023-04-09T21:45:58.233Z,100883.91
2023-04-09T21:48:26.563Z,100878.75
2023-04-09T21:50:53.884Z,100883.34
2023-04-09T21:53:21.350Z,100885.47
2023-04-09T21:55:48.448Z,100886.19
2023-04-09T21:58:15.986Z,100890.56
2023-04-09T22:00:43.382Z,100890.56
2023-04-09T22:03:11.216Z,100886.19
2023-04-09T22:05:38.632Z,100893.50
2023-04-09T22:08:06.007Z,100891.16
2023-04-09T22:10:33.530Z,100891.44
2023-04-09T22:13:00.696Z,100891.88
2023-04-09T22:15:27.768Z,100899.09
2023-04-09T22:17:55.189Z,100905.31
2023-04-09T22:20:26.309Z,100901.94
2023-04-09T22:22:53.916Z,100901.66
2023-04-09T22:25:22.290Z,100892.03
2023-04-09T22:27:53.456Z,100896.50
2023-04-09T22:30:22.000Z,100894.44
2023-04-09T22:32:50.057Z,100906.06
2023-04-09T22:35:18.427Z,100898.75
2023-04-09T22:37:47.009Z,100908.63
2023-04-09T22:40:15.679Z,100899.50
2023-04-09T22:42:44.011Z,100896.31
2023-04-09T22:45:11.764Z,100897.63
2023-04-09T22:47:39.588Z,100903.91
2023-04-09T22:50:07.537Z,100905.22
2023-04-09T22:52:34.678Z,100902.69
2023-04-09T22:55:02.166Z,100898.50
2023-04-09T22:57:29.908Z,100908.56
2023-04-09T22:59:57.699Z,100905.88
2023-04-09T23:02:28.304Z,100905.16
2023-04-09T23:04:55.884Z,100902.03
2023-04-09T23:07:23.174Z,100902.88
2023-04-09T23:09:51.382Z,100899.88
2023-04-09T23:12:18.574Z,100894.50
2023-04-09T23:14:47.572Z,100897.59
2023-04-09T23:17:16.494Z,100891.44
2023-04-09T23:19:43.658Z,100897.50
2023-04-09T23:22:10.885Z,100891.31
2023-04-09T23:24:38.257Z,100895.56
2023-04-09T23:27:05.542Z,100892.22
2023-04-09T23:29:32.756Z,100897.69
2023-04-09T23:32:00.959Z,100890.78
2023-04-09T23:34:28.147Z,100893.47
2023-04-09T23:36:55.229Z,100887.41
2023-04-09T23:39:22.708Z,100890.63
2023-04-09T23:41:49.823Z,100886.22
2023-04-09T23:44:16.964Z,100889.69
2023-04-09T23:46:44.432Z,100883.63
2023-04-09T23:49:11.603Z,100894.16
2023-04-09T23:51:39.026Z,100880.28
2023-04-09T23:54:06.938Z,100885.41
2023-04-09T23:56:34.515Z,100887.91
2023-04-09T23:59:01.712Z,100881.78
